Time;durP1;ratioP1;P1;durP2;ratioP2;P2;SDS_P1;SDS_P2;PMS_P1;PMS_P2;Temp;Humidity;BMP_temperature;BMP_pressure;BME280_temperature;BME280_humidity;BME280_pressure;Samples;Min_cycle;Max_cycle;Signal;HPM_P1;HPM_P2
2022/07/21 00:05:17;;;;;;;10.50;7.28;;;25.70;56.50;;;;;;20607600;28;20070;-75
2022/07/21 00:15:18;;;;;;;11.88;8.02;;;25.70;56.60;;;;;;20589723;28;20454;-73
2022/07/21 00:25:19;;;;;;;10.63;8.30;;;25.70;56.80;;;;;;20619718;28;20141;-74
2022/07/21 00:35:19;;;;;;;11.15;8.10;;;25.70;56.90;;;;;;20603089;28;20114;-74
2022/07/21 00:45:20;;;;;;;8.90;7.78;;;25.70;56.70;;;;;;20619436;28;20038;-75
2022/07/21 00:55:21;;;;;;;11.50;7.88;;;25.70;56.40;;;;;;20941865;23;20142;-75
2022/07/21 01:05:22;;;;;;;10.30;8.15;;;25.70;56.20;;;;;;20495483;28;20070;-75
2022/07/21 01:15:23;;;;;;;8.93;7.78;;;25.60;56.00;;;;;;20503710;28;20590;-74
2022/07/21 01:25:24;;;;;;;8.80;7.53;;;25.60;55.80;;;;;;20526906;28;20035;-75
2022/07/21 01:35:25;;;;;;;8.73;7.43;;;25.60;55.70;;;;;;20507209;28;20047;-75
2022/07/21 01:45:25;;;;;;;11.30;8.45;;;25.60;55.60;;;;;;20520697;28;20451;-74
2022/07/21 01:55:26;;;;;;;10.47;6.43;;;25.50;55.50;;;;;;20511851;28;20417;-74
2022/07/21 02:05:26;;;;;;;8.67;6.17;;;25.50;55.50;;;;;;20504601;28;20290;-74
2022/07/21 02:15:27;;;;;;;9.93;7.07;;;25.50;55.50;;;;;;20516168;28;20389;-75
2022/07/21 02:25:27;;;;;;;7.50;6.78;;;25.50;55.60;;;;;;20536063;28;20043;-74
2022/07/21 02:35:28;;;;;;;8.43;6.45;;;25.50;55.60;;;;;;20501860;28;20177;-76
2022/07/21 02:45:29;;;;;;;10.32;5.85;;;25.50;55.70;;;;;;20528138;28;20125;-74
2022/07/21 02:55:29;;;;;;;8.65;6.35;;;25.50;55.80;;;;;;20541762;28;20047;-74
2022/07/21 03:05:30;;;;;;;7.65;5.10;;;25.40;55.90;;;;;;20504153;28;20071;-74
2022/07/21 03:15:31;;;;;;;8.68;4.68;;;25.50;56.00;;;;;;20529370;28;20040;-74
2022/07/21 03:25:31;;;;;;;5.63;4.57;;;25.40;56.00;;;;;;20542925;28;20118;-76
2022/07/21 03:35:32;;;;;;;6.18;4.63;;;25.40;56.10;;;;;;20528625;28;20131;-74
2022/07/21 03:45:33;;;;;;;5.68;4.07;;;25.40;56.20;;;;;;20545001;28;20118;-74
2022/07/21 03:55:34;;;;;;;5.78;4.18;;;25.40;56.20;;;;;;20493547;28;20044;-76
2022/07/21 04:05:35;;;;;;;6.00;3.92;;;25.40;56.30;;;;;;20490296;28;20042;-75
2022/07/21 04:15:36;;;;;;;6.18;3.90;;;25.40;56.30;;;;;;20516508;28;20043;-74
2022/07/21 04:25:38;;;;;;;5.53;3.78;;;25.30;56.20;;;;;;20509905;28;20046;-73
2022/07/21 04:35:38;;;;;;;6.05;3.22;;;25.30;56.20;;;;;;20540374;28;20165;-74
2022/07/21 04:45:39;;;;;;;4.80;3.65;;;25.30;56.20;;;;;;20541312;28;20118;-74
2022/07/21 04:55:39;;;;;;;5.35;3.25;;;25.30;56.20;;;;;;20531590;28;20055;-74
2022/07/21 05:05:40;;;;;;;6.10;3.10;;;25.30;56.20;;;;;;20489209;28;20031;-77
2022/07/21 05:15:42;;;;;;;3.93;3.03;;;25.30;56.70;;;;;;20524878;28;20038;-75
2022/07/21 05:25:42;;;;;;;4.03;2.97;;;25.30;56.40;;;;;;20537087;28;20466;-75
2022/07/21 05:35:43;;;;;;;5.75;2.78;;;25.30;56.40;;;;;;20529826;28;20402;-77
2022/07/21 05:45:44;;;;;;;6.88;3.30;;;25.30;56.50;;;;;;20496378;28;20042;-79
2022/07/21 05:55:45;;;;;;;5.25;3.13;;;25.20;56.60;;;;;;20521445;28;20106;-77
2022/07/21 06:05:45;;;;;;;5.37;3.20;;;25.20;57.00;;;;;;20496175;28;20066;-83
2022/07/21 06:15:46;;;;;;;4.93;3.30;;;25.20;57.50;;;;;;20521548;28;20035;-86
2022/07/21 06:25:46;;;;;;;8.95;4.03;;;25.10;58.00;;;;;;20549671;28;20486;-86
2022/07/21 06:35:47;;;;;;;7.28;3.70;;;25.10;58.80;;;;;;20544897;28;20099;-86
2022/07/21 06:45:48;;;;;;;6.05;3.60;;;25.10;59.40;;;;;;20549736;28;20121;-79
2022/07/21 06:55:52;;;;;;;9.07;4.28;;;25.10;60.00;;;;;;20541306;28;20086;-79
2022/07/21 07:05:52;;;;;;;8.23;4.70;;;25.10;60.50;;;;;;20500916;28;20125;-80
2022/07/21 07:15:53;;;;;;;7.22;3.63;;;25.10;60.80;;;;;;20525388;28;20031;-82
2022/07/21 07:25:53;;;;;;;6.38;3.95;;;25.10;60.80;;;;;;20513769;28;20066;-82
2022/07/21 07:35:56;;;;;;;5.43;3.17;;;25.10;60.50;;;;;;20524015;28;20078;-80
2022/07/21 07:45:56;;;;;;;7.43;3.42;;;25.10;60.10;;;;;;20497618;28;20113;-77
2022/07/21 07:55:57;;;;;;;6.22;3.70;;;25.20;60.00;;;;;;20493338;28;20046;-76
2022/07/21 08:06:02;;;;;;;5.55;3.10;;;25.20;59.90;;;;;;20526061;28;20144;-77
2022/07/21 08:16:03;;;;;;;6.63;2.95;;;25.20;59.70;;;;;;20516821;28;20039;-77
2022/07/21 08:26:04;;;;;;;6.70;3.53;;;25.20;59.50;;;;;;20522485;28;20085;-77
2022/07/21 08:36:05;;;;;;;6.53;3.60;;;25.20;59.40;;;;;;20522496;28;20047;-79
2022/07/21 08:46:06;;;;;;;4.93;3.00;;;25.20;59.40;;;;;;20521678;28;20050;-77
2022/07/21 08:56:06;;;;;;;6.53;3.30;;;25.30;59.30;;;;;;20516493;28;20516;-79
2022/07/21 09:06:11;;;;;;;4.53;3.33;;;25.20;59.20;;;;;;20502551;28;20528;-79
2022/07/21 09:16:11;;;;;;;5.43;3.28;;;25.20;59.10;;;;;;20510300;28;20043;-79
2022/07/21 09:26:12;;;;;;;4.60;3.25;;;25.20;58.90;;;;;;20544237;28;20081;-77
2022/07/21 09:36:14;;;;;;;4.77;2.73;;;25.20;58.80;;;;;;20503373;28;20027;-78
2022/07/21 09:46:26;;;;;;;7.10;3.85;;;25.30;58.70;;;;;;20498302;28;20722;-78
2022/07/21 09:56:37;;;;;;;6.68;3.30;;;25.30;58.70;;;;;;20513715;28;20043;-73
2022/07/21 10:06:38;;;;;;;6.07;3.53;;;25.30;58.70;;;;;;20518073;28;20161;-78
2022/07/21 10:16:39;;;;;;;5.85;3.17;;;25.30;58.90;;;;;;20533776;28;20497;-76
2022/07/21 10:27:19;;;;;;;5.60;3.83;;;25.30;59.00;;;;;;20529871;28;20039;-73
2022/07/21 10:37:38;;;;;;;4.38;3.30;;;25.30;59.40;;;;;;20552946;28;20301;-72
2022/07/21 10:47:39;;;;;;;7.18;3.80;;;25.30;59.60;;;;;;20541820;28;20070;-74
2022/07/21 10:57:42;;;;;;;4.70;3.20;;;25.20;59.50;;;;;;20519331;28;20038;-81
2022/07/21 11:08:16;;;;;;;4.50;2.30;;;25.20;59.50;;;;;;20509592;28;20305;-75
2022/07/21 11:18:20;;;;;;;2.70;1.75;;;25.20;59.60;;;;;;20507383;28;20061;-75
2022/07/21 11:28:21;;;;;;;2.20;1.83;;;25.20;59.60;;;;;;20532933;28;20047;-75
2022/07/21 11:38:21;;;;;;;1.92;1.52;;;25.30;59.80;;;;;;20495043;28;20390;-74
2022/07/21 11:48:32;;;;;;;2.43;1.47;;;25.20;59.80;;;;;;20542143;28;20065;-75
2022/07/21 11:58:32;;;;;;;1.63;1.30;;;25.30;59.80;;;;;;20509352;28;20046;-76
2022/07/21 12:08:34;;;;;;;2.65;1.55;;;25.20;59.60;;;;;;20513337;28;20031;-80
2022/07/21 12:18:40;;;;;;;2.22;1.38;;;25.20;59.60;;;;;;20471693;28;20401;-86
2022/07/21 12:28:53;;;;;;;1.92;1.27;;;25.20;59.60;;;;;;20533841;28;20034;-77
2022/07/21 12:38:54;;;;;;;2.53;1.90;;;25.30;59.40;;;;;;20543598;28;20040;-72
2022/07/21 12:49:03;;;;;;;2.47;1.70;;;25.30;59.20;;;;;;20538013;28;20045;-77
2022/07/21 12:59:04;;;;;;;3.22;1.88;;;25.30;59.10;;;;;;20507562;28;20083;-77
2022/07/21 13:09:05;;;;;;;3.00;1.85;;;25.30;58.70;;;;;;20515660;28;20035;-74
2022/07/21 13:19:06;;;;;;;3.25;2.05;;;25.30;58.40;;;;;;20524715;28;20074;-72
2022/07/21 13:29:07;;;;;;;3.67;2.25;;;25.40;58.10;;;;;;20512681;28;20047;-73
2022/07/21 13:39:08;;;;;;;2.85;2.35;;;25.40;58.00;;;;;;20509914;28;20549;-74
2022/07/21 13:49:09;;;;;;;4.83;2.00;;;25.40;57.80;;;;;;20508520;28;20038;-75
2022/07/21 13:59:09;;;;;;;3.13;2.27;;;25.50;57.60;;;;;;20470851;28;20317;-73
2022/07/21 14:09:10;;;;;;;5.35;2.65;;;25.50;57.10;;;;;;20490683;28;20374;-77
2022/07/21 14:19:10;;;;;;;4.80;2.50;;;25.50;56.80;;;;;;20514189;28;20062;-76
2022/07/21 14:29:11;;;;;;;2.65;2.20;;;25.50;56.40;;;;;;20535647;28;20434;-76
2022/07/21 14:39:12;;;;;;;3.22;2.22;;;25.60;56.20;;;;;;20530097;28;20044;-73
2022/07/21 14:49:12;;;;;;;1.92;1.60;;;25.70;55.90;;;;;;20519337;28;20035;-75
2022/07/21 14:59:13;;;;;;;4.18;2.10;;;25.70;55.70;;;;;;20509557;28;20122;-76
2022/07/21 15:09:13;;;;;;;4.38;2.67;;;25.60;55.60;;;;;;20527230;28;20043;-79
2022/07/21 15:19:14;;;;;;;2.17;1.52;;;25.60;55.60;;;;;;20504110;28;20497;-75
2022/07/21 15:29:15;;;;;;;4.13;2.40;;;25.60;55.60;;;;;;20484991;28;20043;-82
2022/07/21 15:39:17;;;;;;;2.42;2.22;;;25.70;55.60;;;;;;20528071;28;20039;-80
2022/07/21 15:49:18;;;;;;;4.35;1.85;;;25.80;55.40;;;;;;20523507;28;20121;-77
2022/07/21 15:59:34;;;;;;;3.15;2.30;;;25.90;55.30;;;;;;20525444;28;20504;-80
2022/07/21 16:09:35;;;;;;;3.20;2.28;;;26.00;55.50;;;;;;20560466;28;20042;-73
2022/07/21 16:19:35;;;;;;;3.60;2.65;;;26.00;55.60;;;;;;20505510;29;20045;-75
2022/07/21 16:29:36;;;;;;;6.43;2.50;;;26.10;55.70;;;;;;20559351;28;20034;-82
2022/07/21 16:39:37;;;;;;;4.07;2.40;;;26.00;55.70;;;;;;20489603;29;20040;-79
2022/07/21 16:49:37;;;;;;;3.55;2.35;;;26.00;55.70;;;;;;20521569;28;20042;-77
2022/07/21 16:59:38;;;;;;;3.27;2.27;;;25.90;55.80;;;;;;20504271;28;20437;-77
2022/07/21 17:09:38;;;;;;;3.22;2.45;;;25.80;56.00;;;;;;20485588;29;20390;-78
2022/07/21 17:19:39;;;;;;;3.38;2.20;;;25.80;56.20;;;;;;20541034;28;20031;-79
2022/07/21 17:29:40;;;;;;;3.80;2.75;;;25.70;56.50;;;;;;20486076;29;20101;-76
2022/07/21 17:39:40;;;;;;;3.90;2.33;;;25.70;56.70;;;;;;20510042;28;20027;-75
2022/07/21 17:49:41;;;;;;;3.92;2.17;;;25.70;56.90;;;;;;20465764;28;20392;-79
2022/07/21 17:59:44;;;;;;;3.38;2.45;;;25.70;57.00;;;;;;20500290;28;20094;-77
2022/07/21 18:09:45;;;;;;;2.47;2.07;;;25.80;57.00;;;;;;20492826;28;20066;-76
2022/07/21 18:19:45;;;;;;;3.22;2.10;;;25.80;57.00;;;;;;20518100;29;20126;-76
2022/07/21 18:29:46;;;;;;;3.10;2.13;;;25.70;57.10;;;;;;20498392;28;20477;-75
2022/07/21 18:39:47;;;;;;;3.47;2.30;;;25.70;57.20;;;;;;20579908;28;20039;-75
2022/07/21 18:49:47;;;;;;;2.70;2.17;;;25.60;57.30;;;;;;20564414;28;20046;-76
2022/07/21 18:59:48;;;;;;;2.53;1.90;;;25.60;57.60;;;;;;20510072;28;20138;-82
2022/07/21 19:09:48;;;;;;;3.58;2.42;;;25.50;57.80;;;;;;20531965;28;20031;-74
2022/07/21 19:19:49;;;;;;;2.77;2.07;;;25.50;58.00;;;;;;20528196;28;20031;-74
2022/07/21 19:29:49;;;;;;;2.35;2.03;;;25.40;58.10;;;;;;20526425;28;20043;-74
2022/07/21 19:39:52;;;;;;;3.38;2.83;;;25.40;58.20;;;;;;20527081;28;20118;-75
2022/07/21 19:49:53;;;;;;;6.55;3.08;;;25.40;58.40;;;;;;20523270;28;20437;-76
2022/07/21 19:59:54;;;;;;;4.43;2.77;;;25.30;58.50;;;;;;20486250;28;20031;-77
2022/07/21 20:09:54;;;;;;;4.55;2.63;;;25.30;58.90;;;;;;20505787;28;20063;-76
2022/07/21 20:19:55;;;;;;;2.93;2.10;;;25.20;59.50;;;;;;20524379;28;20793;-76
2022/07/21 20:29:56;;;;;;;3.20;1.98;;;25.20;59.40;;;;;;20520314;28;20042;-76
2022/07/21 20:39:57;;;;;;;5.05;2.20;;;25.10;59.30;;;;;;20526286;28;20108;-76
2022/07/21 20:49:57;;;;;;;3.08;1.85;;;25.10;59.20;;;;;;20507013;28;20039;-76
2022/07/21 20:59:58;;;;;;;2.83;1.65;;;25.00;59.20;;;;;;20500017;28;20466;-76
2022/07/21 21:09:59;;;;;;;3.78;2.20;;;25.00;59.30;;;;;;20520839;28;20070;-76
2022/07/21 21:20:00;;;;;;;2.47;1.67;;;25.00;59.50;;;;;;20519791;28;20031;-76
2022/07/21 21:30:00;;;;;;;1.85;1.65;;;24.90;59.50;;;;;;20524256;28;20548;-76
2022/07/21 21:40:01;;;;;;;2.08;1.30;;;24.90;59.70;;;;;;20518113;28;20105;-76
2022/07/21 21:50:05;;;;;;;3.15;2.00;;;24.90;59.90;;;;;;20506073;28;20039;-74
2022/07/21 22:00:08;;;;;;;5.35;1.80;;;24.90;60.10;;;;;;20490432;28;20131;-74
2022/07/21 22:10:12;;;;;;;2.67;2.20;;;24.80;60.30;;;;;;20502376;28;20045;-74
2022/07/21 22:20:13;;;;;;;2.30;1.83;;;24.80;60.50;;;;;;20518539;28;20032;-74
2022/07/21 22:30:13;;;;;;;2.20;2.00;;;24.70;60.60;;;;;;20518412;28;20039;-74
2022/07/21 22:40:14;;;;;;;3.47;2.30;;;24.70;60.70;;;;;;20533512;28;20346;-74
2022/07/21 22:50:15;;;;;;;2.20;2.00;;;24.70;61.00;;;;;;20533765;28;20378;-76
2022/07/21 23:00:15;;;;;;;2.83;2.03;;;24.60;61.20;;;;;;20492704;28;20138;-74
2022/07/21 23:10:16;;;;;;;2.97;2.00;;;24.60;61.30;;;;;;20545895;28;20094;-76
2022/07/21 23:20:17;;;;;;;2.47;2.17;;;24.50;61.50;;;;;;20531124;28;20513;-76
2022/07/21 23:30:17;;;;;;;3.33;2.65;;;24.50;61.60;;;;;;20528444;28;20039;-76
2022/07/21 23:40:18;;;;;;;4.23;2.60;;;24.50;61.70;;;;;;20523158;28;20170;-75
2022/07/21 23:50:18;;;;;;;2.83;2.47;;;24.50;61.80;;;;;;20528947;28;20306;-76
